This is the latest recevied weather packets stored in our database for station/object DO2DV-13. If no packets are shown the sender has not sent any weather packets the latest 10 day(s).
| Time | Temp. | Humidity | Pressure | Rain* | Wind** | Luminosity | Snow |
|---|---|---|---|---|---|---|---|
| 1777736435 | 26.67° C | 38% | 1017.5 hPa | 0 mm | - | 259 W/m² | - |
| 1777735235 | 25.56° C | 41% | 1017.9 hPa | 0 mm | - | 206 W/m² | - |
| 1777734671 | 26.11° C | 40% | 1018 hPa | 0 mm | - | 267 W/m² | - |
| 1777732241 | 25.56° C | 41% | 1018.4 hPa | 0 mm | - | 511 W/m² | - |
| 1777726848 | 26.11° C | 41% | 1019.6 hPa | 0 mm | - | 602 W/m² | - |
| 1777726272 | 25.56° C | 41% | 1019.7 hPa | 0 mm | - | 684 W/m² | - |
| 1777720834 | 25° C | 43% | 1020.5 hPa | 0 mm | - | 560 W/m² | - |
| 1777717249 | 23.89° C | 46% | 1021.2 hPa | 0 mm | - | 645 W/m² | - |
| 1777716624 | 23.89° C | 46% | 1021.3 hPa | 0 mm | - | 695 W/m² | - |
| 1777711265 | 21.11° C | 48% | 1022.3 hPa | 0 mm | - | 538 W/m² | - |
| 1777710625 | 20.56° C | 48% | 1022.4 hPa | 0 mm | - | 480 W/m² | - |
| 1777703478 | 10° C | 75% | 1022.9 hPa | 0 mm | - | 139 W/m² | - |
| 1777702901 | 10° C | 75% | 1022.9 hPa | 0 mm | - | 108 W/m² | - |
| 1777696865 | 3.33° C | 97% | 1022.7 hPa | 0 mm | - | 15 W/m² | - |
| 1777692066 | 3.33° C | 96% | 1022.7 hPa | 0 mm | - | 0 W/m² | - |
| 1777687842 | 4.44° C | 94% | 1022.8 hPa | 0 mm | - | 0 W/m² | - |
| 1777686625 | 4.44° C | 91% | 1022.9 hPa | 0 mm | - | 0 W/m² | - |
| 1777685473 | 5° C | 91% | 1022.9 hPa | 0 mm | - | 0 W/m² | - |
| 1777683701 | 5° C | 90% | 1023 hPa | 0 mm | - | 0 W/m² | - |
| 1777679458 | 6.67° C | 84% | 1023.4 hPa | 0 mm | - | 0 W/m² | - |
| 1777674659 | 7.78° C | 79% | 1023.4 hPa | 0 mm | - | 0 W/m² | - |
| 1777673440 | 8.33° C | 78% | 1023.6 hPa | 0 mm | - | 0 W/m² | - |
| 1777672865 | 8.89° C | 76% | 1023.3 hPa | 0 mm | - | 0 W/m² | - |
| 1777671636 | 8.89° C | 76% | 1023.4 hPa | 0 mm | - | 0 W/m² | - |
| 1777669253 | 10° C | 72% | 1023.4 hPa | 0 mm | - | 0 W/m² | - |
* Rain latest hour (hover to see other rain measurements)
** Current wind speed in m/s (hover to see current wind gust speed)